Time;durP1;ratioP1;P1;durP2;ratioP2;P2;SDS_P1;SDS_P2;PMS_P1;PMS_P2;Temp;Humidity;BMP_temperature;BMP_pressure;BME280_temperature;BME280_humidity;BME280_pressure;Samples;Min_cycle;Max_cycle;Signal;HPM_P1;HPM_P2
2022/02/05 00:00:35;;;;;;;20.13;13.70;;;6.50;48.90;;;;;;4970852;28;20035;-88
2022/02/05 00:03:38;;;;;;;20.80;13.80;;;6.50;48.90;;;;;;4970476;28;20043;-89
2022/02/05 00:06:03;;;;;;;23.17;13.68;;;6.50;48.90;;;;;;4954830;28;20129;-89
2022/02/05 00:43:10;;;;;;;23.23;14.32;;;6.30;48.70;;;;;;4981888;28;20294;-87
2022/02/05 00:45:41;;;;;;;20.85;13.38;;;6.40;48.70;;;;;;4938718;29;20477;-87
2022/02/05 00:48:07;;;;;;;21.67;14.35;;;6.40;48.70;;;;;;4968346;28;20038;-88
2022/02/05 00:50:38;;;;;;;20.33;12.85;;;6.40;48.60;;;;;;4948380;29;20110;-88
2022/02/05 00:53:13;;;;;;;21.73;13.60;;;6.40;48.50;;;;;;4933833;29;20069;-87
2022/02/05 00:55:43;;;;;;;21.65;14.25;;;6.50;48.50;;;;;;4949280;28;20031;-87
2022/02/05 00:58:09;;;;;;;23.13;14.23;;;6.50;48.40;;;;;;4946885;29;20525;-87
2022/02/05 01:00:36;;;;;;;21.70;13.85;;;6.50;48.40;;;;;;4946974;29;20062;-86
2022/02/05 01:03:03;;;;;;;19.98;13.38;;;6.50;48.40;;;;;;4949402;28;20040;-88
2022/02/05 01:05:30;;;;;;;20.02;13.77;;;6.50;48.30;;;;;;4947848;29;20031;-83
2022/02/05 01:07:57;;;;;;;22.80;14.18;;;6.50;48.30;;;;;;4976657;28;20782;-86
2022/02/05 01:10:28;;;;;;;20.50;13.60;;;6.50;48.40;;;;;;4947734;28;20340;-87
2022/02/05 01:13:02;;;;;;;20.08;13.02;;;6.50;48.30;;;;;;4977369;28;20047;-87
2022/02/05 01:15:35;;;;;;;22.15;14.38;;;6.50;48.30;;;;;;4967022;28;20801;-87
2022/02/05 01:18:05;;;;;;;22.15;14.48;;;6.50;48.40;;;;;;4968695;28;20033;-86
2022/02/05 01:23:53;;;;;;;23.50;14.32;;;6.50;48.40;;;;;;4945979;28;20039;-85
2022/02/05 01:26:36;;;;;;;24.30;15.55;;;6.50;48.40;;;;;;4968721;28;20474;-86
2022/02/05 01:29:09;;;;;;;23.45;14.43;;;6.50;48.40;;;;;;4951879;28;20088;-86
2022/02/05 01:31:46;;;;;;;21.30;14.00;;;6.50;48.40;;;;;;4939367;28;20722;-85
2022/02/05 01:55:28;;;;;;;21.48;14.52;;;6.40;48.70;;;;;;4951911;28;20034;-86
2022/02/05 01:58:11;;;;;;;22.25;14.30;;;6.40;48.70;;;;;;4951412;28;20109;-84
2022/02/05 02:14:34;;;;;;;23.60;14.57;;;6.30;48.60;;;;;;4949293;28;20081;-86
2022/02/05 02:25:16;;;;;;;22.48;14.30;;;6.30;48.70;;;;;;4965783;28;20745;-86
2022/02/05 02:27:51;;;;;;;21.52;14.48;;;6.30;48.80;;;;;;4915746;28;20031;-86
2022/02/05 02:30:25;;;;;;;;;;;6.30;48.80;;;;;;4927139;28;20093;-86
2022/02/05 02:32:59;;;;;;;18.95;12.77;;;6.40;48.90;;;;;;4955996;28;20385;-86
2022/02/05 02:35:28;;;;;;;21.83;14.30;;;6.40;48.80;;;;;;4954231;28;20026;-85
2022/02/05 02:38:00;;;;;;;20.15;13.38;;;6.40;48.80;;;;;;4932147;28;20030;-86
2022/02/05 02:42:59;;;;;;;20.70;13.43;;;6.40;48.70;;;;;;4955770;28;20054;-86
2022/02/05 02:45:25;;;;;;;19.20;13.55;;;6.50;48.70;;;;;;4956134;28;20043;-85
2022/02/05 02:47:50;;;;;;;19.90;13.18;;;6.50;48.60;;;;;;4957406;28;20038;-87
2022/02/05 02:58:34;;;;;;;21.10;12.88;;;6.50;48.40;;;;;;4936322;28;20035;-87
2022/02/05 03:01:01;;;;;;;22.48;14.57;;;6.50;48.40;;;;;;4937150;28;20165;-88
2022/02/05 03:03:28;;;;;;;21.42;14.02;;;6.50;48.40;;;;;;4936770;28;20035;-87
2022/02/05 03:05:54;;;;;;;21.58;13.23;;;6.60;48.40;;;;;;4948430;28;20074;-86
2022/02/05 03:08:20;;;;;;;22.27;13.88;;;6.60;48.40;;;;;;4951535;28;20405;-86
2022/02/05 03:10:47;;;;;;;22.95;14.68;;;6.50;48.40;;;;;;4952478;28;20046;-86
2022/02/05 03:13:13;;;;;;;20.35;13.25;;;6.50;48.40;;;;;;4951810;28;20042;-84
2022/02/05 03:15:41;;;;;;;22.35;13.05;;;6.50;48.40;;;;;;4962010;28;20030;-86
2022/02/05 03:18:16;;;;;;;20.50;13.15;;;6.50;48.40;;;;;;4964050;28;20117;-86
2022/02/05 03:20:42;;;;;;;22.02;13.77;;;6.50;48.40;;;;;;4963309;28;20133;-85
2022/02/05 03:23:08;;;;;;;18.77;12.98;;;6.50;48.50;;;;;;4963742;28;20134;-86
2022/02/05 03:25:34;;;;;;;19.95;12.93;;;6.50;48.50;;;;;;4964938;28;20549;-86
2022/02/05 03:28:02;;;;;;;20.10;12.88;;;6.50;48.60;;;;;;4966020;28;20042;-86
2022/02/05 03:30:28;;;;;;;20.70;13.15;;;6.50;48.60;;;;;;4953097;28;20046;-87
2022/02/05 03:32:56;;;;;;;21.98;14.02;;;6.50;48.60;;;;;;4970841;28;20519;-87
2022/02/05 03:35:22;;;;;;;20.25;13.00;;;6.50;48.70;;;;;;4968005;28;20078;-86
2022/02/05 03:37:48;;;;;;;21.60;13.30;;;6.50;48.70;;;;;;4936152;28;20035;-86
2022/02/05 03:40:14;;;;;;;22.95;13.93;;;6.50;48.70;;;;;;4953015;28;20053;-86
2022/02/05 03:42:40;;;;;;;22.27;13.60;;;6.50;48.80;;;;;;4968613;28;20038;-86
2022/02/05 03:45:09;;;;;;;21.73;13.95;;;6.50;48.80;;;;;;4967571;28;20050;-86
2022/02/05 03:47:35;;;;;;;23.55;14.45;;;6.50;48.80;;;;;;4969077;28;20117;-86
2022/02/05 03:50:03;;;;;;;21.77;14.73;;;6.50;48.90;;;;;;4971830;28;20062;-87
2022/02/05 03:52:29;;;;;;;21.65;13.98;;;6.50;48.80;;;;;;4969058;28;20413;-86
2022/02/05 03:54:55;;;;;;;22.80;13.55;;;6.50;48.90;;;;;;4936719;28;20037;-87
2022/02/05 03:57:21;;;;;;;21.75;14.25;;;6.50;49.00;;;;;;4952731;28;20031;-90
2022/02/05 03:59:48;;;;;;;22.70;14.70;;;6.40;48.80;;;;;;4953394;28;20027;-90
2022/02/05 04:02:14;;;;;;;23.42;14.65;;;6.50;48.90;;;;;;4969556;28;20037;-89
2022/02/05 04:04:40;;;;;;;19.80;13.30;;;6.40;48.90;;;;;;4952071;28;20086;-89
2022/02/05 04:07:06;;;;;;;21.83;13.95;;;6.40;48.90;;;;;;4968763;28;20042;-88
2022/02/05 04:09:41;;;;;;;22.38;14.23;;;6.40;48.80;;;;;;4968260;28;20038;-87
2022/02/05 04:17:24;;;;;;;22.45;13.95;;;6.40;48.90;;;;;;4968466;28;20030;-87
2022/02/05 04:19:50;;;;;;;20.73;14.10;;;6.40;48.90;;;;;;4976035;28;20030;-87
2022/02/05 04:22:16;;;;;;;22.40;14.07;;;6.40;48.90;;;;;;4965665;28;20070;-86
2022/02/05 04:24:43;;;;;;;21.50;14.05;;;6.40;48.90;;;;;;4952899;28;20489;-87
2022/02/05 04:27:10;;;;;;;21.40;13.90;;;6.40;48.90;;;;;;4967809;28;20050;-87
2022/02/05 04:29:37;;;;;;;22.38;13.77;;;6.50;48.90;;;;;;4939476;28;20049;-87
2022/02/05 04:32:04;;;;;;;22.65;14.07;;;6.50;48.80;;;;;;4983882;28;20035;-88
2022/02/05 04:34:30;;;;;;;22.27;14.27;;;6.50;48.70;;;;;;4955312;28;20061;-88
2022/02/05 04:36:57;;;;;;;23.88;15.00;;;6.60;48.70;;;;;;4963072;28;20034;-85
2022/02/05 04:39:23;;;;;;;22.88;14.95;;;6.60;48.70;;;;;;4953464;28;20037;-88
2022/02/05 04:41:55;;;;;;;21.65;14.23;;;6.60;48.60;;;;;;4936727;28;20130;-88
2022/02/05 04:44:49;;;;;;;25.27;14.38;;;6.60;48.50;;;;;;4969395;28;20066;-88
2022/02/05 04:53:21;;;;;;;23.33;14.63;;;6.60;48.50;;;;;;4971483;28;20034;-88
2022/02/05 05:00:53;;;;;;;23.85;14.35;;;6.60;48.60;;;;;;4967419;28;20465;-89
2022/02/05 05:03:24;;;;;;;25.05;15.73;;;6.60;48.60;;;;;;4950839;28;20042;-88
2022/02/05 05:21:24;;;;;;;23.88;15.48;;;6.60;48.90;;;;;;4934609;29;20062;-89
2022/02/05 05:23:50;;;;;;;25.05;15.30;;;6.60;48.90;;;;;;4935009;29;20069;-89
2022/02/05 05:26:16;;;;;;;24.83;14.27;;;6.60;48.90;;;;;;4939042;29;22328;-85
2022/02/05 05:28:42;;;;;;;25.08;15.77;;;6.60;48.90;;;;;;4936171;29;20158;-89
2022/02/05 05:31:08;;;;;;;24.98;15.13;;;6.60;49.00;;;;;;4933398;29;20115;-87
2022/02/05 05:33:34;;;;;;;24.90;15.57;;;6.60;48.90;;;;;;4921294;29;20040;-90
2022/02/05 05:36:00;;;;;;;25.45;14.85;;;6.60;49.00;;;;;;4942117;29;20040;-87
2022/02/05 05:38:26;;;;;;;28.65;15.73;;;6.50;49.00;;;;;;4937185;29;20183;-91
2022/02/05 05:40:52;;;;;;;25.40;15.85;;;6.60;49.00;;;;;;4921264;29;20108;-93
2022/02/05 05:43:28;;;;;;;24.58;16.05;;;6.60;48.90;;;;;;4904732;29;20028;-92
2022/02/05 05:48:41;;;;;;;26.85;15.75;;;6.60;49.00;;;;;;4963498;28;20035;-90
2022/02/05 05:51:07;;;;;;;26.67;15.18;;;6.60;49.00;;;;;;4961812;28;20030;-91
2022/02/05 05:53:33;;;;;;;26.30;16.38;;;6.50;49.00;;;;;;4983562;28;20081;-92
2022/02/05 05:56:02;;;;;;;23.63;14.88;;;6.50;48.90;;;;;;4958980;28;20031;-93
2022/02/05 05:58:28;;;;;;;23.33;15.35;;;6.50;49.00;;;;;;4958272;28;20042;-93
2022/02/05 06:00:55;;;;;;;26.38;15.95;;;6.50;49.00;;;;;;4958292;28;20093;-93
2022/02/05 06:03:21;;;;;;;24.35;15.15;;;6.50;49.10;;;;;;4966449;28;20050;-88
2022/02/05 06:05:47;;;;;;;24.83;15.27;;;6.50;49.10;;;;;;4990983;28;20026;-91
2022/02/05 06:08:15;;;;;;;24.75;15.25;;;6.60;49.10;;;;;;4973563;28;20109;-87
2022/02/05 06:10:43;;;;;;;24.50;14.93;;;6.60;49.20;;;;;;4986345;28;20035;-92
2022/02/05 06:13:10;;;;;;;25.60;15.80;;;6.60;49.10;;;;;;4952713;28;20023;-89
2022/02/05 06:15:38;;;;;;;22.75;14.90;;;6.70;49.10;;;;;;4950942;29;20188;-94
2022/02/05 06:18:04;;;;;;;27.77;16.10;;;6.70;49.10;;;;;;4929712;29;20051;-87
2022/02/05 06:20:30;;;;;;;23.63;14.75;;;6.70;49.00;;;;;;4954357;29;20074;-86
2022/02/05 06:22:56;;;;;;;25.05;15.52;;;6.70;48.90;;;;;;4965988;28;20031;-87
2022/02/05 06:25:22;;;;;;;25.08;15.15;;;6.80;49.00;;;;;;4950467;29;20035;-85
2022/02/05 06:27:48;;;;;;;25.75;16.00;;;6.80;49.10;;;;;;4950963;29;20023;-88
2022/02/05 06:30:14;;;;;;;23.85;14.88;;;6.80;49.90;;;;;;4935130;29;20085;-87
2022/02/05 06:32:43;;;;;;;27.17;14.57;;;6.90;51.10;;;;;;4953195;28;20043;-89
2022/02/05 06:35:10;;;;;;;28.38;16.63;;;6.90;53.70;;;;;;4988979;28;20086;-85
2022/02/05 06:37:37;;;;;;;30.20;16.45;;;6.80;53.40;;;;;;4958238;29;21338;-84
2022/02/05 06:40:07;;;;;;;22.27;12.73;;;6.80;53.40;;;;;;4953201;28;20379;-85
2022/02/05 06:42:33;;;;;;;24.40;12.70;;;6.80;60.20;;;;;;4951025;29;20071;-89
2022/02/05 06:44:59;;;;;;;24.33;13.98;;;6.90;61.10;;;;;;4947448;29;20089;-89
2022/02/05 06:47:25;;;;;;;22.35;12.70;;;6.90;59.70;;;;;;4979579;28;20050;-92
2022/02/05 06:49:51;;;;;;;24.30;14.13;;;7.00;59.10;;;;;;4965503;28;20077;-89
2022/02/05 06:52:17;;;;;;;23.00;13.00;;;7.10;58.70;;;;;;4951181;29;20067;-86
2022/02/05 06:54:43;;;;;;;21.05;13.25;;;7.10;58.40;;;;;;4948846;29;20432;-89
2022/02/05 06:57:09;;;;;;;22.35;12.60;;;7.20;59.90;;;;;;4950283;29;20035;-85
2022/02/05 06:59:35;;;;;;;27.38;15.13;;;7.20;60.00;;;;;;4939036;29;20027;-88
2022/02/05 07:02:01;;;;;;;25.13;14.65;;;7.30;59.70;;;;;;4944346;28;20130;-86
2022/02/05 07:04:27;;;;;;;25.00;14.00;;;7.40;59.10;;;;;;4969587;28;20077;-89
2022/02/05 07:06:56;;;;;;;22.00;14.55;;;7.40;58.90;;;;;;4959358;29;20066;-87
2022/02/05 07:09:24;;;;;;;23.27;14.93;;;7.40;58.70;;;;;;4948629;28;20035;-84
2022/02/05 07:11:55;;;;;;;25.55;14.68;;;7.50;58.50;;;;;;4947303;28;20466;-85
2022/02/05 07:14:25;;;;;;;27.23;14.90;;;7.50;58.20;;;;;;4957952;28;20406;-85
2022/02/05 07:16:58;;;;;;;24.15;14.15;;;7.50;58.40;;;;;;4922027;28;20027;-88
2022/02/05 07:19:52;;;;;;;23.38;14.00;;;7.50;58.50;;;;;;4923667;28;20031;-84
2022/02/05 07:22:18;;;;;;;25.60;15.07;;;7.60;58.70;;;;;;4930768;28;20900;-86
2022/02/05 07:24:59;;;;;;;24.65;15.50;;;7.60;58.70;;;;;;4956863;28;20063;-88
2022/02/05 07:30:09;;;;;;;25.38;15.25;;;7.60;59.00;;;;;;4937677;28;20730;-89
2022/02/05 07:32:35;;;;;;;25.48;15.93;;;7.70;59.30;;;;;;4923315;28;20047;-86
2022/02/05 07:35:02;;;;;;;27.60;16.50;;;7.70;59.40;;;;;;4921668;28;20082;-88
2022/02/05 07:37:28;;;;;;;26.58;15.80;;;7.70;59.50;;;;;;4937169;28;20030;-83
2022/02/05 07:39:54;;;;;;;27.95;15.77;;;7.80;60.10;;;;;;4939471;28;20100;-82
2022/02/05 07:42:20;;;;;;;25.95;16.35;;;7.80;59.40;;;;;;4952538;28;20114;-83
2022/02/05 07:44:52;;;;;;;30.65;17.08;;;7.80;59.40;;;;;;4937440;28;20042;-84
2022/02/05 07:47:21;;;;;;;28.00;16.95;;;7.80;59.60;;;;;;4939797;28;20058;-84
2022/02/05 07:49:47;;;;;;;32.03;17.15;;;7.90;59.60;;;;;;4938476;28;20079;-80
2022/02/05 07:52:14;;;;;;;26.40;15.65;;;7.90;61.60;;;;;;4954671;28;20047;-79
2022/02/05 07:54:47;;;;;;;33.35;16.23;;;7.90;63.70;;;;;;4951841;28;20040;-80
2022/02/05 07:57:13;;;;;;;34.22;17.75;;;8.00;65.80;;;;;;4954299;28;20249;-80
2022/02/05 07:59:40;;;;;;;28.85;15.73;;;8.10;65.40;;;;;;4952316;28;20086;-78
2022/02/05 08:02:08;;;;;;;29.05;16.23;;;8.10;64.90;;;;;;4953330;28;20035;-80
2022/02/05 08:04:33;;;;;;;29.67;17.55;;;8.10;64.30;;;;;;4938229;28;20049;-78
2022/02/05 08:07:01;;;;;;;30.45;18.38;;;8.20;63.70;;;;;;4935995;28;20035;-78
2022/02/05 08:09:42;;;;;;;29.55;17.23;;;8.20;63.10;;;;;;4952433;28;20062;-80
2022/02/05 08:12:11;;;;;;;29.98;18.25;;;8.20;62.80;;;;;;4953413;28;20600;-80
2022/02/05 08:14:42;;;;;;;38.35;22.33;;;8.20;62.30;;;;;;4959161;28;20082;-79
2022/02/05 08:17:18;;;;;;;39.80;22.45;;;8.30;62.30;;;;;;4968846;28;20061;-79
2022/02/05 08:19:45;;;;;;;37.33;20.60;;;8.30;62.20;;;;;;4966803;28;20054;-79
2022/02/05 08:22:11;;;;;;;37.80;20.98;;;8.30;62.00;;;;;;4968069;28;20023;-79
2022/02/05 08:24:37;;;;;;;33.28;19.40;;;8.40;62.40;;;;;;4967262;28;20553;-79
2022/02/05 08:27:04;;;;;;;33.42;20.48;;;8.40;62.20;;;;;;4968852;28;20129;-78
2022/02/05 08:29:31;;;;;;;34.88;20.02;;;8.40;62.20;;;;;;4965582;28;20039;-81
2022/02/05 08:31:58;;;;;;;38.83;20.13;;;8.40;62.00;;;;;;4968079;28;20034;-80
2022/02/05 08:34:24;;;;;;;32.13;18.98;;;8.50;61.80;;;;;;4965257;28;20030;-79
2022/02/05 08:36:51;;;;;;;32.53;18.77;;;8.50;61.20;;;;;;4966378;28;20163;-79
2022/02/05 08:39:20;;;;;;;34.45;19.95;;;8.50;61.10;;;;;;4966719;28;20042;-80
2022/02/05 08:41:46;;;;;;;33.78;20.17;;;8.50;61.10;;;;;;4951166;28;20043;-78
2022/02/05 08:44:12;;;;;;;36.13;19.73;;;8.50;61.00;;;;;;4954139;28;20124;-78
2022/02/05 08:46:38;;;;;;;38.38;21.33;;;8.50;60.70;;;;;;4967805;28;20067;-80
2022/02/05 08:49:04;;;;;;;34.60;20.23;;;8.60;60.60;;;;;;4966519;28;20043;-80
2022/02/05 08:51:32;;;;;;;32.85;19.40;;;8.60;60.50;;;;;;4965543;28;20572;-81
2022/02/05 08:53:59;;;;;;;33.15;20.08;;;8.60;60.30;;;;;;4950113;28;20049;-80
2022/02/05 08:56:26;;;;;;;31.38;19.50;;;8.60;60.10;;;;;;4965399;28;20584;-80
2022/02/05 08:58:56;;;;;;;35.40;19.60;;;8.70;60.20;;;;;;4965818;28;20031;-80
2022/02/05 09:02:30;;;;;;;32.97;19.25;;;8.70;60.00;;;;;;4966354;28;20113;-80
2022/02/05 09:06:46;;;;;;;33.17;19.48;;;8.70;59.80;;;;;;4950725;28;20035;-80
2022/02/05 09:11:47;;;;;;;34.58;19.80;;;8.70;59.80;;;;;;4949109;28;20031;-80
2022/02/05 09:14:17;;;;;;;33.97;19.45;;;8.70;59.70;;;;;;4951238;28;20109;-80
2022/02/05 09:16:44;;;;;;;32.35;19.88;;;8.70;59.70;;;;;;4951002;28;20312;-80
2022/02/05 09:19:11;;;;;;;32.15;18.52;;;8.70;59.70;;;;;;4982511;28;20074;-80
2022/02/05 09:21:37;;;;;;;33.00;19.73;;;8.70;59.60;;;;;;4951553;28;20518;-80
2022/02/05 09:24:06;;;;;;;29.77;18.70;;;8.80;59.70;;;;;;4967581;28;20042;-80
2022/02/05 09:26:33;;;;;;;33.25;18.80;;;8.80;59.60;;;;;;4967483;28;20528;-80
2022/02/05 09:29:02;;;;;;;32.17;18.85;;;8.80;59.50;;;;;;4965597;28;20490;-79
2022/02/05 09:31:33;;;;;;;30.20;19.27;;;8.80;59.50;;;;;;4967848;28;20035;-80
2022/02/05 09:34:00;;;;;;;33.53;20.10;;;8.80;59.40;;;;;;4965202;28;20034;-80
2022/02/05 09:36:26;;;;;;;29.25;17.90;;;8.80;59.30;;;;;;4966947;28;20461;-80
2022/02/05 09:38:56;;;;;;;30.50;18.33;;;8.80;59.20;;;;;;4966885;28;20038;-80
2022/02/05 09:41:24;;;;;;;28.95;18.40;;;8.80;59.40;;;;;;4964681;28;20162;-79
2022/02/05 09:43:51;;;;;;;32.90;18.65;;;8.80;59.70;;;;;;4966683;28;20071;-84
2022/02/05 09:46:19;;;;;;;32.88;17.83;;;8.90;60.00;;;;;;4950764;28;20080;-84
2022/02/05 09:48:47;;;;;;;30.10;17.55;;;8.90;59.90;;;;;;4966685;28;20045;-83
2022/02/05 09:51:18;;;;;;;26.27;17.65;;;8.90;60.10;;;;;;4965256;28;20034;-84
2022/02/05 09:53:54;;;;;;;24.35;16.73;;;8.90;60.00;;;;;;4950069;28;20062;-83
2022/02/05 09:56:22;;;;;;;28.73;17.17;;;8.90;60.00;;;;;;4949362;28;20032;-85
2022/02/05 09:58:48;;;;;;;27.85;17.75;;;9.00;60.00;;;;;;4949733;28;20030;-83
2022/02/05 10:01:24;;;;;;;26.92;17.10;;;9.00;60.00;;;;;;4933889;28;20031;-83
2022/02/05 10:03:52;;;;;;;28.70;17.27;;;9.00;59.80;;;;;;4981806;28;20573;-82
2022/02/05 10:06:32;;;;;;;29.33;17.05;;;9.00;59.70;;;;;;4966363;28;20065;-83
2022/02/05 10:09:13;;;;;;;26.45;16.40;;;9.00;59.50;;;;;;4966076;28;20043;-83
2022/02/05 10:11:57;;;;;;;28.98;17.15;;;9.00;59.20;;;;;;4967665;28;20034;-83
2022/02/05 10:14:33;;;;;;;27.70;16.73;;;9.00;59.10;;;;;;4981492;28;20480;-84
2022/02/05 10:17:04;;;;;;;26.23;16.02;;;9.00;59.00;;;;;;4966036;28;20034;-82
2022/02/05 10:20:06;;;;;;;26.33;16.38;;;9.00;58.90;;;;;;4965932;28;20030;-82
2022/02/05 10:22:43;;;;;;;27.20;16.45;;;9.00;58.90;;;;;;4899393;29;20140;-83
2022/02/05 10:25:17;;;;;;;26.85;16.27;;;9.00;58.90;;;;;;4908040;29;20043;-83
2022/02/05 10:27:45;;;;;;;27.42;16.65;;;9.00;58.90;;;;;;4899207;29;20039;-83
2022/02/05 10:30:25;;;;;;;26.55;15.80;;;9.10;59.00;;;;;;4907274;29;20047;-83
2022/02/05 10:33:11;;;;;;;30.20;16.45;;;9.00;58.80;;;;;;4907867;29;20044;-83
2022/02/05 10:36:24;;;;;;;25.33;16.05;;;9.10;58.90;;;;;;4876170;29;20044;-83
2022/02/05 10:39:52;;;;;;;27.17;16.30;;;9.10;58.90;;;;;;4907773;29;20572;-84
2022/02/05 10:45:05;;;;;;;25.27;15.23;;;9.10;58.80;;;;;;4907314;29;20450;-83
2022/02/05 10:47:56;;;;;;;26.25;15.18;;;9.10;58.70;;;;;;4908365;29;20106;-82
2022/02/05 10:50:27;;;;;;;24.38;14.73;;;9.10;58.60;;;;;;4891810;29;20040;-83
2022/02/05 10:53:03;;;;;;;23.60;14.68;;;9.10;58.50;;;;;;4907292;29;20044;-83
2022/02/05 10:58:39;;;;;;;26.02;16.33;;;9.10;58.20;;;;;;4963034;28;20034;-83
2022/02/05 11:07:05;;;;;;;23.90;14.52;;;9.20;58.50;;;;;;4909912;29;20042;-83
2022/02/05 11:09:34;;;;;;;21.83;12.93;;;9.20;58.70;;;;;;4916321;29;20091;-84
2022/02/05 11:20:16;;;;;;;20.50;11.38;;;9.20;58.50;;;;;;4904727;29;20122;-83
2022/02/05 11:22:46;;;;;;;17.02;10.43;;;9.20;58.00;;;;;;4917207;29;20051;-83
2022/02/05 11:25:14;;;;;;;13.25;9.63;;;9.30;57.70;;;;;;4899762;29;20175;-85
2022/02/05 11:27:51;;;;;;;12.30;8.48;;;9.20;57.80;;;;;;4909826;29;20566;-82
2022/02/05 11:30:31;;;;;;;15.10;8.52;;;9.20;57.60;;;;;;4916626;29;20130;-83
2022/02/05 11:33:05;;;;;;;14.23;8.60;;;9.30;57.50;;;;;;4893485;29;20099;-83
2022/02/05 11:35:43;;;;;;;13.93;8.50;;;9.20;57.30;;;;;;4900750;29;20044;-83
2022/02/05 11:38:09;;;;;;;12.73;8.75;;;9.30;57.40;;;;;;4904872;29;20127;-82
2022/02/05 11:40:41;;;;;;;11.93;8.35;;;9.30;57.30;;;;;;4912500;28;20518;-84
2022/02/05 11:43:22;;;;;;;14.48;8.27;;;9.20;57.40;;;;;;4967835;28;20093;-83
2022/02/05 11:46:07;;;;;;;12.00;8.60;;;9.30;57.50;;;;;;4936096;28;20362;-84
2022/02/05 11:48:37;;;;;;;15.65;9.45;;;9.30;57.40;;;;;;4970134;28;20046;-82
2022/02/05 11:51:09;;;;;;;11.15;8.25;;;9.30;56.90;;;;;;4956311;28;20056;-82
2022/02/05 11:53:57;;;;;;;13.25;8.20;;;9.20;56.40;;;;;;4955936;28;20205;-83
2022/02/05 11:56:54;;;;;;;15.85;8.93;;;9.20;56.00;;;;;;4968805;28;20039;-84
2022/02/05 11:59:24;;;;;;;;;;;9.20;55.60;;;;;;4953054;28;20035;-83
2022/02/05 12:02:08;;;;;;;16.10;8.82;;;9.20;55.30;;;;;;4971820;28;19960;-82
2022/02/05 12:04:34;;;;;;;14.10;9.20;;;9.20;55.20;;;;;;4971115;28;20438;-81
2022/02/05 12:07:06;;;;;;;14.20;8.93;;;9.20;55.00;;;;;;4956217;28;20117;-82
2022/02/05 12:09:38;;;;;;;11.60;8.68;;;9.20;55.20;;;;;;4954606;28;20046;-81
2022/02/05 12:12:45;;;;;;;17.27;9.23;;;9.20;55.60;;;;;;4973912;28;20066;-81
2022/02/05 12:15:17;;;;;;;16.90;10.35;;;9.20;55.50;;;;;;4961365;28;20071;-82
2022/02/05 12:20:26;;;;;;;16.60;9.50;;;9.20;56.20;;;;;;4963620;28;20061;-81
2022/02/05 12:23:10;;;;;;;13.10;8.77;;;9.20;56.60;;;;;;4971630;28;20035;-80
2022/02/05 12:25:56;;;;;;;15.68;9.18;;;9.20;56.90;;;;;;4969604;28;20074;-80
2022/02/05 12:28:36;;;;;;;;;;;9.10;57.10;;;;;;4956706;28;20049;-81
2022/02/05 12:31:25;;;;;;;13.18;8.40;;;9.20;57.20;;;;;;4971690;28;19914;-81
2022/02/05 12:33:54;;;;;;;14.60;9.07;;;9.10;57.30;;;;;;4942638;28;20054;-81
2022/02/05 12:36:54;;;;;;;15.25;8.93;;;9.20;57.40;;;;;;4968357;28;20031;-81
2022/02/05 12:39:25;;;;;;;13.60;9.02;;;9.20;57.30;;;;;;4966488;28;20062;-81
2022/02/05 12:41:56;;;;;;;13.82;9.15;;;9.10;57.20;;;;;;4967926;28;20452;-84
2022/02/05 12:44:28;;;;;;;14.65;9.85;;;9.20;57.20;;;;;;4953288;28;20038;-83
2022/02/05 12:47:06;;;;;;;16.83;9.65;;;9.10;57.10;;;;;;4952701;28;20043;-83
2022/02/05 12:52:00;;;;;;;14.23;10.05;;;9.10;56.80;;;;;;4967685;28;20501;-82
2022/02/05 12:54:31;;;;;;;16.38;10.18;;;9.10;56.70;;;;;;4950342;28;20046;-82
2022/02/05 12:57:00;;;;;;;16.15;10.32;;;9.10;56.60;;;;;;4966487;28;20122;-82
2022/02/05 12:59:38;;;;;;;14.63;9.95;;;9.10;56.60;;;;;;4965965;28;20537;-80
2022/02/05 13:02:09;;;;;;;16.20;10.82;;;9.10;56.70;;;;;;4967262;28;20042;-80
2022/02/05 13:04:37;;;;;;;20.38;10.98;;;9.10;56.60;;;;;;4966799;28;20039;-81
2022/02/05 13:07:05;;;;;;;23.15;11.80;;;9.10;56.70;;;;;;4966849;28;20121;-84
2022/02/05 13:09:37;;;;;;;17.58;10.80;;;9.10;56.60;;;;;;4968109;28;20027;-85
2022/02/05 13:12:08;;;;;;;22.75;11.35;;;9.10;56.80;;;;;;4952610;28;20026;-86
2022/02/05 13:14:49;;;;;;;17.60;11.20;;;9.10;56.80;;;;;;4945756;28;20051;-81
2022/02/05 13:17:32;;;;;;;20.90;11.00;;;9.10;56.90;;;;;;4940387;28;20039;-81
2022/02/05 13:41:12;;;;;;;18.60;9.80;;;9.10;57.60;;;;;;4938960;28;20136;-80
2022/02/05 13:43:53;;;;;;;16.50;9.80;;;9.10;57.60;;;;;;4956899;28;20522;-81
2022/02/05 13:46:20;;;;;;;15.68;10.20;;;9.10;57.80;;;;;;4956564;28;20042;-80
2022/02/05 13:48:47;;;;;;;12.05;8.35;;;9.10;57.70;;;;;;4956277;28;20042;-81
2022/02/05 13:51:13;;;;;;;14.40;8.32;;;9.10;57.60;;;;;;4933212;28;20034;-81
2022/02/05 13:54:01;;;;;;;11.63;7.95;;;9.10;57.60;;;;;;4956521;28;20117;-81
2022/02/05 13:56:33;;;;;;;17.02;7.85;;;9.10;57.60;;;;;;4924514;28;20114;-82
2022/02/05 13:59:00;;;;;;;11.18;7.20;;;9.10;57.40;;;;;;4917199;28;20042;-80
2022/02/05 14:01:27;;;;;;;10.55;7.20;;;9.10;57.30;;;;;;4957993;28;20034;-79
2022/02/05 14:03:53;;;;;;;11.88;7.63;;;9.10;57.20;;;;;;4956355;28;20063;-82
2022/02/05 14:06:19;;;;;;;11.05;7.50;;;9.10;57.20;;;;;;4956092;28;20074;-81
2022/02/05 14:08:46;;;;;;;11.88;8.00;;;9.10;57.20;;;;;;4955177;28;20125;-81
2022/02/05 14:11:25;;;;;;;11.25;7.75;;;9.10;57.10;;;;;;4956884;28;20043;-82
2022/02/05 14:13:56;;;;;;;12.68;7.55;;;9.10;57.10;;;;;;4942271;28;20042;-82
2022/02/05 14:16:33;;;;;;;14.75;7.72;;;9.10;57.10;;;;;;4950398;28;20631;-82
2022/02/05 14:19:04;;;;;;;12.00;7.50;;;9.10;57.00;;;;;;4966755;28;20057;-82
2022/02/05 14:21:40;;;;;;;11.82;7.57;;;9.10;57.00;;;;;;4966520;28;20043;-84
2022/02/05 14:24:18;;;;;;;11.73;7.00;;;9.00;56.90;;;;;;4948885;28;20497;-82
2022/02/05 14:26:55;;;;;;;12.68;7.07;;;9.00;57.00;;;;;;4965887;28;20081;-83
2022/02/05 14:29:22;;;;;;;11.98;7.40;;;9.00;56.90;;;;;;4951175;28;20033;-82
2022/02/05 14:31:54;;;;;;;11.35;7.40;;;9.00;57.00;;;;;;4950063;28;20045;-82
2022/02/05 14:34:43;;;;;;;11.35;7.20;;;9.00;56.90;;;;;;4933394;28;20035;-82
2022/02/05 14:42:37;;;;;;;9.88;6.97;;;9.00;56.80;;;;;;4966935;28;20121;-81
2022/02/05 14:45:03;;;;;;;10.30;7.07;;;9.00;56.70;;;;;;4964381;28;20038;-82
2022/02/05 14:47:30;;;;;;;11.65;6.90;;;9.00;56.90;;;;;;4948569;28;20125;-82
2022/02/05 14:49:56;;;;;;;11.07;7.45;;;8.90;56.80;;;;;;4965480;28;21040;-82
2022/02/05 14:52:22;;;;;;;12.32;7.32;;;8.90;57.00;;;;;;4948879;28;20589;-81
2022/02/05 14:54:48;;;;;;;11.30;7.43;;;9.00;57.10;;;;;;4948170;28;20049;-83
2022/02/05 14:57:14;;;;;;;11.38;7.32;;;8.90;57.00;;;;;;4933884;28;20149;-82
2022/02/05 14:59:42;;;;;;;10.40;7.10;;;8.90;57.20;;;;;;4964654;28;20062;-83
2022/02/05 15:02:10;;;;;;;10.52;6.97;;;8.90;57.20;;;;;;4946934;28;20117;-83
2022/02/05 15:04:37;;;;;;;11.68;7.30;;;8.90;57.10;;;;;;4949779;28;20537;-83
2022/02/05 15:07:04;;;;;;;11.77;7.15;;;8.90;57.10;;;;;;4965857;28;20030;-83
2022/02/05 15:09:30;;;;;;;11.65;7.40;;;8.90;57.10;;;;;;4947624;28;20089;-82
2022/02/05 15:11:56;;;;;;;11.98;7.63;;;8.90;57.10;;;;;;4967810;28;20027;-84
2022/02/05 15:14:22;;;;;;;13.77;7.72;;;8.90;56.90;;;;;;4945041;28;20166;-84
2022/02/05 15:16:49;;;;;;;11.63;7.50;;;8.90;56.90;;;;;;4948507;29;20066;-85
2022/02/05 15:19:15;;;;;;;12.73;7.63;;;8.90;56.90;;;;;;4962839;28;20093;-84
2022/02/05 15:21:41;;;;;;;12.20;7.85;;;8.90;56.90;;;;;;4929735;29;20035;-86
2022/02/05 15:24:11;;;;;;;11.48;7.78;;;8.90;57.00;;;;;;4963259;28;20102;-86
2022/02/05 15:26:37;;;;;;;12.90;8.18;;;8.90;56.90;;;;;;4950836;28;20046;-86
2022/02/05 15:29:06;;;;;;;14.18;7.75;;;8.90;56.90;;;;;;4949350;29;20098;-87
2022/02/05 15:31:33;;;;;;;12.60;8.07;;;8.80;56.80;;;;;;4947924;29;20529;-86
2022/02/05 15:34:01;;;;;;;13.27;8.10;;;8.80;56.80;;;;;;4949115;28;20039;-87
2022/02/05 15:36:43;;;;;;;10.77;7.45;;;8.90;57.00;;;;;;4948309;29;20082;-85
2022/02/05 15:39:23;;;;;;;15.18;8.52;;;8.80;56.90;;;;;;4948173;29;20495;-84
2022/02/05 15:44:38;;;;;;;10.90;7.93;;;8.80;56.90;;;;;;4928794;29;20092;-89
2022/02/05 15:47:04;;;;;;;11.27;7.93;;;8.80;56.90;;;;;;4929934;29;20044;-86
2022/02/05 15:49:30;;;;;;;13.27;8.52;;;8.80;57.00;;;;;;4928659;29;20043;-85
2022/02/05 15:51:58;;;;;;;14.70;8.52;;;8.70;57.00;;;;;;4932521;29;20396;-84
2022/02/05 15:54:27;;;;;;;13.98;8.63;;;8.80;56.90;;;;;;4933465;29;20036;-87
2022/02/05 15:59:23;;;;;;;13.45;9.30;;;8.80;56.90;;;;;;4934776;29;20040;-85
2022/02/05 16:01:48;;;;;;;14.55;9.25;;;8.70;56.80;;;;;;4903174;29;20039;-85
2022/02/05 16:04:17;;;;;;;15.35;9.85;;;8.70;56.90;;;;;;4938112;29;20663;-86
2022/02/05 16:06:43;;;;;;;14.05;9.18;;;8.70;57.00;;;;;;4928153;29;20098;-84
2022/02/05 16:09:08;;;;;;;16.15;9.40;;;8.70;57.00;;;;;;4902873;29;20036;-85